Time;durP1;ratioP1;P1;durP2;ratioP2;P2;SDS_P1;SDS_P2;PMS_P1;PMS_P2;Temp;Humidity;BMP_temperature;BMP_pressure;BME280_temperature;BME280_humidity;BME280_pressure;Samples;Min_cycle;Max_cycle;Signal;HPM_P1;HPM_P2
2022/11/28 00:00:38;;;;;;;6.70;2.50;;;;;;;4.59;100.00;96124.78;5035359;28;20289;-83
2022/11/28 00:03:07;;;;;;;3.80;2.40;;;;;;;4.61;100.00;96122.72;5039812;28;20210;-82
2022/11/28 00:05:35;;;;;;;3.37;2.50;;;;;;;4.61;100.00;96128.88;5047918;28;20205;-84
2022/11/28 00:08:02;;;;;;;4.40;2.40;;;;;;;4.61;100.00;96114.69;5050079;28;20202;-82
2022/11/28 00:10:29;;;;;;;4.73;2.53;;;;;;;4.63;100.00;96109.97;5040109;28;20218;-83
2022/11/28 00:12:57;;;;;;;4.07;2.50;;;;;;;4.66;100.00;96122.94;5050832;28;20203;-83
2022/11/28 00:15:24;;;;;;;3.50;2.20;;;;;;;4.68;100.00;96118.25;5041830;28;20277;-83
2022/11/28 00:17:51;;;;;;;2.90;2.40;;;;;;;4.62;100.00;96097.63;5040109;28;20296;-83
2022/11/28 00:20:20;;;;;;;3.50;2.20;;;;;;;4.68;100.00;96103.00;5044507;28;20265;-82
2022/11/28 00:22:47;;;;;;;4.97;2.10;;;;;;;4.70;100.00;96100.94;5044215;28;20252;-83
2022/11/28 00:25:14;;;;;;;2.30;1.90;;;;;;;4.75;100.00;96108.38;5045474;28;20245;-83
2022/11/28 00:27:41;;;;;;;2.80;2.10;;;;;;;4.79;100.00;96104.28;5046541;28;20218;-84
2022/11/28 00:30:09;;;;;;;3.37;2.23;;;;;;;4.80;100.00;96092.56;5045153;28;20257;-83
2022/11/28 00:32:38;;;;;;;2.77;2.30;;;;;;;4.71;100.00;96077.69;5050674;28;20210;-83
2022/11/28 00:35:06;;;;;;;2.83;1.83;;;;;;;4.81;100.00;96099.56;5051697;28;20213;-83
2022/11/28 00:37:35;;;;;;;3.73;1.90;;;;;;;4.75;100.00;96087.00;5050269;28;20206;-83
2022/11/28 00:40:02;;;;;;;2.93;1.90;;;;;;;4.78;100.00;96095.41;5050415;28;20340;-84
2022/11/28 00:42:29;;;;;;;3.00;1.97;;;;;;;4.72;100.00;96088.22;5047379;28;20211;-84
2022/11/28 00:44:56;;;;;;;3.80;1.90;;;;;;;4.78;100.00;96091.91;5048265;28;20207;-83
2022/11/28 00:47:23;;;;;;;4.50;2.17;;;;;;;4.80;100.00;96106.75;5048480;28;20209;-83
2022/11/28 00:49:50;;;;;;;3.77;2.30;;;;;;;4.79;100.00;96112.28;5036579;28;20207;-83
2022/11/28 00:52:18;;;;;;;3.70;2.40;;;;;;;4.75;100.00;96119.91;5048466;28;20210;-83
2022/11/28 00:54:46;;;;;;;4.03;2.47;;;;;;;4.72;100.00;96124.81;5046984;28;20287;-80
2022/11/28 00:57:13;;;;;;;3.17;2.43;;;;;;;4.61;100.00;96122.72;5056596;28;20237;-83
2022/11/28 00:59:40;;;;;;;4.40;2.57;;;;;;;4.60;100.00;96127.22;5039209;28;20198;-83
2022/11/28 01:02:07;;;;;;;5.13;2.97;;;;;;;4.65;100.00;96130.16;5066791;28;20189;-83
2022/11/28 01:04:35;;;;;;;5.90;2.60;;;;;;;4.61;100.00;96120.84;5050672;28;20221;-83
2022/11/28 01:07:02;;;;;;;5.07;2.53;;;;;;;4.67;100.00;96132.63;5061429;28;20208;-83
2022/11/28 01:09:29;;;;;;;4.07;2.30;;;;;;;4.59;100.00;96124.78;5044293;28;20200;-83
2022/11/28 01:11:58;;;;;;;4.90;3.03;;;;;;;4.64;100.00;96133.84;5071790;28;20253;-82
2022/11/28 01:14:26;;;;;;;2.60;2.20;;;;;;;4.59;100.00;96124.78;5066059;28;20205;-82
2022/11/28 01:16:53;;;;;;;3.13;2.40;;;;;;;4.52;100.00;96119.38;5065290;28;20334;-83
2022/11/28 01:19:21;;;;;;;2.53;2.07;;;;;;;4.61;100.00;96136.06;5052209;28;20205;-83
2022/11/28 01:21:48;;;;;;;4.00;2.60;;;;;;;4.56;100.00;96126.81;5050959;28;20204;-83
2022/11/28 01:24:15;;;;;;;3.30;2.60;;;;;;;4.61;100.00;96120.84;5052907;28;20205;-82
2022/11/28 01:26:43;;;;;;;3.63;2.30;;;;;;;4.65;100.00;96118.63;5051297;28;20286;-83
2022/11/28 01:29:12;;;;;;;3.97;2.80;;;;;;;4.53;100.00;96111.16;5049286;28;20206;-83
2022/11/28 01:31:40;;;;;;;3.10;2.50;;;;;;;4.50;100.00;96105.41;5044943;28;20218;-83
2022/11/28 01:34:07;;;;;;;2.47;2.10;;;;;;;4.51;100.00;96105.19;5038203;28;20211;-83
2022/11/28 01:36:34;;;;;;;3.73;2.50;;;;;;;4.46;100.00;96091.59;5054210;28;20304;-83
2022/11/28 01:39:01;;;;;;;3.90;2.30;;;;;;;4.49;100.00;96101.06;5037166;28;20201;-83
2022/11/28 01:41:29;;;;;;;6.00;3.00;;;;;;;4.58;100.00;96107.91;5054494;28;20185;-86
2022/11/28 01:44:02;;;;;;;3.23;2.20;;;;;;;4.59;100.00;96103.38;5056958;28;20210;-81
2022/11/28 01:46:31;;;;;;;3.37;2.00;;;;;;;4.54;100.00;96094.09;5066996;28;20263;-83
2022/11/28 01:49:02;;;;;;;4.47;2.43;;;;;;;4.64;100.00;96109.78;5048347;28;20269;-84
2022/11/28 01:51:30;;;;;;;3.20;2.43;;;;;;;4.60;100.00;96095.13;5046009;28;20219;-83
2022/11/28 01:53:58;;;;;;;2.77;2.10;;;;;;;4.65;100.00;96102.59;5051857;28;20205;-83
2022/11/28 01:56:29;;;;;;;2.73;2.10;;;;;;;4.68;100.00;96107.53;5043344;28;20238;-83
2022/11/28 01:59:02;;;;;;;3.87;2.30;;;;;;;4.74;100.00;96122.78;5048590;28;20210;-82
2022/11/28 02:01:31;;;;;;;2.27;2.00;;;;;;;4.74;100.00;96118.25;5048809;28;20197;-83
2022/11/28 02:04:00;;;;;;;2.97;2.10;;;;;;;4.66;100.00;96096.22;5045783;28;20210;-83
2022/11/28 02:06:28;;;;;;;3.17;2.07;;;;;;;4.68;100.00;96102.19;5037124;28;20209;-83
2022/11/28 02:08:56;;;;;;;3.13;2.03;;;;;;;4.73;100.00;96118.44;5048042;28;20194;-83
2022/11/28 02:11:52;;;;;;;3.17;2.17;;;;;;;4.64;100.00;96099.06;5052722;28;20221;-83
2022/11/28 02:14:33;;;;;;;2.20;1.90;;;;;;;4.66;100.00;96101.56;5052615;28;20204;-83
2022/11/28 02:17:11;;;;;;;3.17;2.10;;;;;;;4.67;100.00;96121.94;5052046;28;20228;-83
2022/11/28 02:20:22;;;;;;;4.10;2.20;;;;;;;4.64;100.00;96125.81;5046527;28;20293;-83
2022/11/28 02:22:55;;;;;;;3.03;2.03;;;;;;;4.57;100.00;96114.28;5049490;28;20245;-83
2022/11/28 02:25:45;;;;;;;3.20;2.30;;;;;;;4.51;100.00;96110.53;5052494;28;20197;-83
2022/11/28 02:28:35;;;;;;;5.00;2.47;;;;;;;4.55;100.00;96114.47;5051963;28;20209;-83
2022/11/28 02:31:17;;;;;;;3.57;2.67;;;;;;;4.57;100.00;96123.13;5047715;28;20304;-83
2022/11/28 02:33:49;;;;;;;4.23;2.53;;;;;;;4.47;100.00;96108.47;5055010;28;20201;-83
2022/11/28 02:36:23;;;;;;;3.90;2.30;;;;;;;4.50;100.00;96132.97;5056119;28;20316;-83
2022/11/28 02:39:01;;;;;;;3.30;2.23;;;;;;;4.49;100.00;96133.97;5055889;28;20204;-83
2022/11/28 02:41:33;;;;;;;5.03;2.43;;;;;;;4.53;100.00;96121.03;5055991;28;20212;-83
2022/11/28 02:44:10;;;;;;;2.73;1.90;;;;;;;4.45;100.00;96113.16;5070766;28;20190;-83
2022/11/28 02:46:45;;;;;;;5.23;2.37;;;;;;;4.50;100.00;96126.78;5048992;28;20198;-83
2022/11/28 02:49:20;;;;;;;3.17;2.33;;;;;;;4.49;100.00;96125.13;5043402;28;20243;-83
2022/11/28 02:51:51;;;;;;;2.90;2.10;;;;;;;4.46;100.00;96121.00;5047779;28;20209;-83
2022/11/28 02:54:20;;;;;;;3.07;2.30;;;;;;;4.51;100.00;96128.41;5052578;28;20206;-83
2022/11/28 02:56:49;;;;;;;3.60;2.20;;;;;;;4.54;100.00;96139.56;5053246;28;20236;-83
2022/11/28 02:59:32;;;;;;;3.07;2.17;;;;;;;4.52;100.00;96146.09;5053758;28;20247;-83
2022/11/28 03:02:01;;;;;;;4.57;2.47;;;;;;;4.45;100.00;96135.38;5045312;28;20210;-83
2022/11/28 03:04:38;;;;;;;3.90;3.00;;;;;;;4.37;100.00;96124.84;5045574;28;20198;-83
2022/11/28 03:07:18;;;;;;;5.90;4.30;;;;;;;4.32;100.00;96123.81;5045571;28;20269;-84
2022/11/28 03:09:56;;;;;;;4.67;2.83;;;;;;;4.36;100.00;96133.88;5056904;28;20259;-82
2022/11/28 03:12:31;;;;;;;5.30;2.83;;;;;;;4.43;100.00;96150.78;5045592;28;20213;-83
2022/11/28 03:15:01;;;;;;;3.03;2.13;;;;;;;4.41;100.00;96123.44;5052471;28;20283;-83
2022/11/28 03:17:38;;;;;;;2.90;2.00;;;;;;;4.43;100.00;96115.22;5064644;28;20271;-83
2022/11/28 03:20:19;;;;;;;4.20;2.33;;;;;;;4.40;100.00;96116.44;5040581;28;20214;-83
2022/11/28 03:23:01;;;;;;;4.23;2.70;;;;;;;4.45;100.00;96122.03;5041147;28;20213;-83
2022/11/28 03:25:34;;;;;;;2.80;2.20;;;;;;;4.38;100.00;96106.97;5053962;28;20205;-83
2022/11/28 03:28:08;;;;;;;5.33;2.57;;;;;;;4.46;100.00;96118.31;5040896;28;20284;-83
2022/11/28 03:30:42;;;;;;;3.97;2.73;;;;;;;4.43;100.00;96116.03;5069892;28;20189;-83
2022/11/28 03:33:10;;;;;;;2.90;2.30;;;;;;;4.46;100.00;96112.16;5070621;28;20198;-82
2022/11/28 03:35:47;;;;;;;2.97;2.00;;;;;;;4.44;100.00;96112.34;5047356;28;20200;-82
2022/11/28 03:38:19;;;;;;;2.83;2.00;;;;;;;4.45;100.00;96123.88;5048356;28;20253;-83
2022/11/28 03:40:49;;;;;;;3.10;2.23;;;;;;;4.40;100.00;96120.97;5041844;28;20233;-83
2022/11/28 03:43:21;;;;;;;2.53;2.10;;;;;;;4.55;100.00;96116.31;5051387;28;20206;-83
2022/11/28 03:45:51;;;;;;;2.83;2.00;;;;;;;4.52;100.00;96106.84;5051960;28;20213;-82
2022/11/28 03:48:23;;;;;;;2.60;2.10;;;;;;;4.42;100.00;96082.31;5052590;28;20263;-83
2022/11/28 03:50:59;;;;;;;2.63;1.90;;;;;;;4.51;100.00;96102.50;5049625;28;20205;-83
2022/11/28 03:53:32;;;;;;;2.50;1.93;;;;;;;4.62;100.00;96103.78;5049285;28;20265;-82
2022/11/28 03:56:05;;;;;;;2.87;2.10;;;;;;;4.61;100.00;96098.63;5049786;28;20226;-83
2022/11/28 03:58:38;;;;;;;4.67;2.03;;;;;;;4.60;100.00;96088.97;5049384;28;20301;-83
2022/11/28 04:01:14;;;;;;;3.60;2.20;;;;;;;4.63;100.00;96085.91;5044886;28;20198;-83
2022/11/28 04:03:48;;;;;;;2.93;1.83;;;;;;;4.65;100.00;96075.84;5036065;28;20206;-82
2022/11/28 04:06:22;;;;;;;2.30;1.90;;;;;;;4.73;100.00;96075.66;5046729;28;20211;-83
2022/11/28 04:08:53;;;;;;;2.60;1.80;;;;;;;4.79;100.00;96073.00;5047132;28;20264;-82
2022/11/28 04:11:25;;;;;;;3.50;2.07;;;;;;;4.89;100.00;96067.28;5046669;28;20226;-83
2022/11/28 04:13:58;;;;;;;2.60;1.73;;;;;;;4.83;100.00;96070.75;5046604;28;20225;-83
2022/11/28 04:16:32;;;;;;;3.43;2.10;;;;;;;5.02;100.00;96067.28;5043046;28;20207;-82
2022/11/28 04:19:04;;;;;;;1.87;1.60;;;;;;;5.04;100.00;96070.59;5044606;28;20209;-82
2022/11/28 04:21:38;;;;;;;2.60;1.93;;;;;;;4.94;100.00;96052.25;5043759;28;20205;-83
2022/11/28 04:24:11;;;;;;;3.30;1.70;;;;;;;5.06;100.00;96049.00;5047620;28;20287;-83
2022/11/28 04:26:43;;;;;;;2.67;1.93;;;;;;;5.00;100.00;96052.50;5051707;28;20194;-81
2022/11/28 04:29:14;;;;;;;1.97;1.70;;;;;;;5.00;100.00;96057.84;5051051;28;20214;-83
2022/11/28 04:31:44;;;;;;;4.37;1.60;;;;;;;4.94;100.00;96044.22;5044480;28;20212;-82
2022/11/28 04:34:17;;;;;;;2.07;1.50;;;;;;;4.95;100.00;96040.53;5042725;28;20205;-82
2022/11/28 04:36:49;;;;;;;3.50;1.53;;;;;;;5.01;100.00;96024.72;5047068;28;20214;-83
2022/11/28 04:39:19;;;;;;;2.27;1.60;;;;;;;5.10;100.00;96026.16;5045855;28;20198;-82
2022/11/28 04:41:53;;;;;;;2.00;1.50;;;;;;;5.18;100.00;96023.28;5052115;28;20194;-83
2022/11/28 04:44:29;;;;;;;2.07;1.60;;;;;;;5.22;100.00;96025.34;5051258;28;20206;-83
2022/11/28 04:46:57;;;;;;;2.43;1.60;;;;;;;5.26;100.00;96025.75;5048377;28;20265;-82
2022/11/28 04:49:26;;;;;;;2.20;1.43;;;;;;;5.22;100.00;96027.19;5047163;28;20202;-83
2022/11/28 04:52:03;;;;;;;1.87;1.40;;;;;;;5.17;100.00;96025.16;5038750;28;20210;-83
2022/11/28 04:54:38;;;;;;;1.60;1.20;;;;;;;5.11;100.00;96025.09;5048848;28;20209;-83
2022/11/28 04:57:14;;;;;;;3.20;1.40;;;;;;;5.07;100.00;96022.03;5048050;28;20241;-83
2022/11/28 04:59:42;;;;;;;2.70;2.00;;;;;;;5.10;100.00;96018.13;5048582;28;20199;-84
2022/11/28 05:02:12;;;;;;;2.10;1.50;;;;;;;5.13;100.00;96018.53;5049650;28;20209;-83
2022/11/28 05:04:40;;;;;;;5.97;1.70;;;;;;;5.10;100.00;95999.41;5045336;28;20202;-83
2022/11/28 05:07:09;;;;;;;3.47;1.50;;;;;;;5.07;100.00;96005.97;5047065;28;20213;-83
2022/11/28 05:09:37;;;;;;;3.07;1.53;;;;;;;5.05;100.00;96010.72;5046114;28;20298;-83
2022/11/28 05:12:05;;;;;;;1.93;1.53;;;;;;;4.94;100.00;95998.75;5045050;28;20888;-83
2022/11/28 05:14:32;;;;;;;4.23;1.90;;;;;;;4.91;100.00;95995.66;5043775;28;20211;-83
2022/11/28 05:16:59;;;;;;;1.47;1.37;;;;;;;5.00;100.00;96007.00;5044502;28;20242;-83
2022/11/28 05:19:26;;;;;;;2.17;1.43;;;;;;;4.95;100.00;96008.41;5044768;28;20202;-83
2022/11/28 05:21:54;;;;;;;3.00;2.17;;;;;;;4.86;100.00;96008.81;5045593;28;20285;-83
2022/11/28 05:24:23;;;;;;;1.60;1.27;;;;;;;4.77;100.00;96002.81;5047154;28;20205;-83
2022/11/28 05:26:50;;;;;;;2.60;2.17;;;;;;;4.78;100.00;96004.47;5048607;28;20224;-82
2022/11/28 05:29:17;;;;;;;4.93;1.90;;;;;;;4.73;100.00;96008.78;5049378;28;20273;-81
2022/11/28 05:31:44;;;;;;;3.17;1.70;;;;;;;4.69;100.00;96010.22;5040309;28;20191;-83
2022/11/28 05:34:11;;;;;;;1.90;1.40;;;;;;;4.76;100.00;96027.94;5047742;28;20289;-82
2022/11/28 05:36:38;;;;;;;2.20;1.77;;;;;;;4.66;100.00;96013.31;5045075;28;20198;-82
2022/11/28 05:39:06;;;;;;;5.27;2.20;;;;;;;4.63;100.00;96019.06;5039590;28;20337;-83
2022/11/28 05:41:35;;;;;;;2.47;1.57;;;;;;;4.69;100.00;96029.75;5044421;28;20212;-83
2022/11/28 05:44:02;;;;;;;3.10;2.07;;;;;;;4.59;100.00;96023.16;5048082;28;20202;-83
2022/11/28 05:46:30;;;;;;;3.53;2.00;;;;;;;4.60;100.00;96027.47;5046075;28;20201;-83
2022/11/28 05:48:58;;;;;;;4.07;2.50;;;;;;;4.59;100.00;96028.50;5046436;28;20209;-83
2022/11/28 05:51:26;;;;;;;5.93;2.73;;;;;;;4.57;100.00;96018.00;5043979;28;20201;-83
2022/11/28 05:53:53;;;;;;;3.53;2.20;;;;;;;4.50;100.00;96022.53;5051188;28;20205;-82
2022/11/28 05:56:23;;;;;;;3.00;2.10;;;;;;;4.55;100.00;96046.78;5049273;28;20234;-83
2022/11/28 05:58:52;;;;;;;3.63;2.50;;;;;;;4.51;100.00;96035.66;5043231;28;20219;-83
2022/11/28 06:01:21;;;;;;;3.47;2.67;;;;;;;4.53;100.00;96038.13;5047463;28;20209;-83
2022/11/28 06:03:48;;;;;;;5.80;4.23;;;;;;;4.50;100.00;96047.41;5043808;28;20280;-83
2022/11/28 06:06:19;;;;;;;7.07;4.20;;;;;;;4.46;100.00;96039.97;5044065;28;20198;-83
2022/11/28 06:08:48;;;;;;;4.57;3.23;;;;;;;4.44;100.00;96039.34;5044607;28;20193;-83
2022/11/28 06:11:17;;;;;;;6.23;3.37;;;;;;;4.50;100.00;96049.25;5050711;28;20300;-83
2022/11/28 06:13:45;;;;;;;3.80;2.67;;;;;;;4.43;100.00;96051.88;5049063;28;20213;-83
2022/11/28 06:16:17;;;;;;;3.93;2.20;;;;;;;4.45;100.00;96054.34;5042063;28;20205;-83
2022/11/28 06:18:45;;;;;;;4.40;2.00;;;;;;;4.45;100.00;96047.16;5051539;28;20213;-83
2022/11/28 06:21:13;;;;;;;7.73;2.40;;;;;;;4.46;100.00;96045.31;5050860;28;20291;-83
2022/11/28 06:23:41;;;;;;;4.37;2.50;;;;;;;4.43;100.00;96041.19;5055326;28;20190;-83
2022/11/28 06:26:10;;;;;;;6.13;2.97;;;;;;;4.48;100.00;96037.94;5052888;28;20198;-83
2022/11/28 06:28:38;;;;;;;3.00;2.20;;;;;;;4.42;100.00;96034.19;5044951;28;20198;-83
2022/11/28 06:31:10;;;;;;;4.40;3.30;;;;;;;4.45;100.00;96052.50;5052017;28;20190;-86
2022/11/28 06:33:38;;;;;;;5.57;3.20;;;;;;;4.41;100.00;96050.44;5049810;28;20210;-83
2022/11/28 06:36:09;;;;;;;4.37;2.63;;;;;;;4.48;100.00;96041.44;5059360;28;20194;-83
2022/11/28 06:38:37;;;;;;;2.70;2.10;;;;;;;4.37;100.00;96022.44;5050811;28;20264;-83
2022/11/28 06:41:06;;;;;;;2.83;2.20;;;;;;;4.46;100.00;96046.16;5053347;28;20216;-83
2022/11/28 06:43:34;;;;;;;6.30;2.70;;;;;;;4.40;100.00;96048.78;5062931;28;20222;-83
2022/11/28 06:46:02;;;;;;;4.00;2.50;;;;;;;4.51;100.00;96066.91;5038522;28;20238;-84
2022/11/28 06:48:29;;;;;;;4.37;2.53;;;;;;;4.46;100.00;96067.53;5047351;28;20202;-83
2022/11/28 06:51:06;;;;;;;3.80;3.07;;;;;;;4.41;100.00;96053.94;5045583;28;20210;-84
2022/11/28 06:53:34;;;;;;;4.47;3.40;;;;;;;4.36;100.00;96056.38;5048950;28;20201;-83
2022/11/28 06:56:06;;;;;;;3.53;2.70;;;;;;;4.31;100.00;96063.34;5038807;28;20462;-83
2022/11/28 06:58:34;;;;;;;5.47;2.57;;;;;;;4.44;100.00;96076.75;5062724;28;20234;-83
2022/11/28 07:01:09;;;;;;;4.83;2.73;;;;;;;4.45;100.00;96071.22;5049074;28;20229;-83
2022/11/28 07:03:38;;;;;;;3.37;2.70;;;;;;;4.51;100.00;96075.75;5051425;28;20202;-83
2022/11/28 07:06:07;;;;;;;6.17;2.90;;;;;;;4.51;100.00;96078.44;5050192;28;20206;-83
2022/11/28 07:08:35;;;;;;;5.43;2.70;;;;;;;4.53;100.00;96064.88;5044199;28;20247;-82
2022/11/28 07:11:08;;;;;;;3.03;2.30;;;;;;;4.50;100.00;96070.66;5050705;28;20217;-84
2022/11/28 07:13:36;;;;;;;3.13;2.20;;;;;;;4.53;100.00;96062.22;5036664;28;20272;-83
2022/11/28 07:16:04;;;;;;;4.10;2.17;;;;;;;4.50;100.00;96066.13;5051380;28;20205;-84
2022/11/28 07:18:35;;;;;;;4.00;2.80;;;;;;;4.46;100.00;96056.84;5050312;28;20569;-83
2022/11/28 07:21:03;;;;;;;2.97;2.40;;;;;;;4.63;100.00;96067.19;5035609;28;20206;-83
2022/11/28 07:23:31;;;;;;;2.90;1.97;;;;;;;4.65;100.00;96043.75;5042572;28;20215;-83
2022/11/28 07:25:59;;;;;;;3.23;2.00;;;;;;;4.78;100.00;96063.31;5046572;28;20203;-83
2022/11/28 07:28:27;;;;;;;2.37;1.80;;;;;;;4.87;100.00;96058.63;5041222;28;20203;-83
2022/11/28 07:31:02;;;;;;;2.40;1.93;;;;;;;4.87;100.00;96059.44;5038546;28;20231;-83
2022/11/28 07:33:30;;;;;;;2.50;1.77;;;;;;;4.96;100.00;96057.41;5047505;28;20205;-83
2022/11/28 07:36:02;;;;;;;4.27;2.10;;;;;;;5.00;100.00;96057.84;5047317;28;20262;-88
2022/11/28 07:38:31;;;;;;;3.07;2.37;;;;;;;5.19;100.00;96049.81;5046835;28;20275;-87
2022/11/28 07:41:03;;;;;;;3.07;1.67;;;;;;;5.20;100.00;96031.91;5044717;28;20297;-87
2022/11/28 07:43:30;;;;;;;1.83;1.43;;;;;;;5.29;100.00;96026.16;5042959;28;20206;-84
2022/11/28 07:45:57;;;;;;;2.13;1.40;;;;;;;5.47;100.00;96030.09;5047864;28;20206;-84
2022/11/28 07:48:24;;;;;;;1.83;1.50;;;;;;;5.53;100.00;96031.97;5050683;28;20211;-84
2022/11/28 07:50:52;;;;;;;1.77;1.37;;;;;;;5.51;100.00;96031.34;5045207;28;20210;-84
2022/11/28 07:53:19;;;;;;;5.40;2.00;;;;;;;5.57;100.00;96049.25;5052757;28;20207;-84
2022/11/28 07:55:47;;;;;;;3.10;2.77;;;;;;;5.53;100.00;96046.13;5055207;28;20236;-84
2022/11/28 07:58:15;;;;;;;5.60;3.77;;;;;;;5.50;100.00;96057.28;5053282;28;20223;-84
2022/11/28 08:00:42;;;;;;;7.43;3.40;;;;;;;5.60;100.00;96063.06;5045094;28;20351;-84
2022/11/28 08:03:09;;;;;;;8.83;4.27;;;;;;;5.51;100.00;96058.09;5051250;28;20198;-84
2022/11/28 08:05:36;;;;;;;8.10;4.30;;;;;;;5.48;100.00;96053.97;5052678;28;20210;-84
2022/11/28 08:08:05;;;;;;;7.27;4.03;;;;;;;5.52;100.00;96067.78;5050875;28;20199;-84
2022/11/28 08:10:32;;;;;;;11.67;4.67;;;;;;;5.51;100.00;96079.53;5047324;28;20232;-83
2022/11/28 08:13:02;;;;;;;8.57;3.80;;;;;;;5.45;100.00;96064.25;5051057;28;20217;-85
2022/11/28 08:15:30;;;;;;;10.27;3.60;;;;;;;5.47;100.00;96059.53;5044038;28;20198;-85
2022/11/28 08:17:57;;;;;;;7.70;3.50;;;;;;;5.44;100.00;96047.41;5043505;28;20211;-85
2022/11/28 08:20:24;;;;;;;3.90;2.50;;;;;;;5.49;100.00;96046.78;5061335;28;20213;-85
2022/11/28 08:22:51;;;;;;;6.00;3.00;;;;;;;5.50;100.00;96043.06;5041505;28;20230;-85
2022/11/28 08:25:19;;;;;;;7.60;3.20;;;;;;;5.56;100.00;96047.59;5061680;28;20318;-84
2022/11/28 08:27:46;;;;;;;9.87;5.90;;;;;;;5.62;100.00;96052.13;5053499;28;20203;-83
2022/11/28 08:30:15;;;;;;;10.50;5.57;;;;;;;5.67;100.00;96052.34;5050958;28;20200;-85
2022/11/28 08:32:42;;;;;;;11.07;6.77;;;;;;;5.68;100.00;96052.13;5048821;28;20214;-84
2022/11/28 08:35:09;;;;;;;16.13;8.30;;;;;;;5.69;100.00;96042.25;5045698;28;20199;-85
2022/11/28 08:37:36;;;;;;;23.30;13.13;;;;;;;5.71;100.00;96041.00;5047894;28;20202;-85
2022/11/28 08:40:03;;;;;;;18.77;11.07;;;;;;;5.73;100.00;96048.81;5052732;28;20198;-86
2022/11/28 08:42:31;;;;;;;17.90;9.00;;;;;;;5.73;100.00;96054.19;5043810;28;20206;-86
2022/11/28 08:44:58;;;;;;;13.93;9.07;;;;;;;5.68;100.00;96035.25;5039252;28;20240;-85
2022/11/28 08:47:26;;;;;;;13.47;7.40;;;;;;;5.72;100.00;96031.09;5036524;28;20210;-83
2022/11/28 08:49:53;;;;;;;8.57;4.33;;;;;;;5.74;100.00;96033.56;5053747;28;20210;-85
2022/11/28 08:52:21;;;;;;;5.70;3.20;;;;;;;5.83;100.00;96035.84;5045118;28;20266;-85
2022/11/28 08:54:48;;;;;;;6.63;3.53;;;;;;;5.82;100.00;96025.31;5048305;28;20236;-84
2022/11/28 08:57:17;;;;;;;5.00;3.30;;;;;;;5.89;100.00;96035.03;5049781;28;20198;-84
2022/11/28 08:59:44;;;;;;;5.57;3.57;;;;;;;5.86;100.00;96027.38;5048464;28;20229;-84
2022/11/28 09:02:13;;;;;;;7.00;2.97;;;;;;;5.97;100.00;96033.97;5051508;28;20289;-85
2022/11/28 09:04:42;;;;;;;4.47;3.07;;;;;;;5.99;100.00;96011.31;5044899;28;20202;-86
2022/11/28 09:07:09;;;;;;;6.60;3.40;;;;;;;6.03;100.00;96011.72;5048097;28;20205;-87
2022/11/28 09:09:36;;;;;;;6.43;3.90;;;;;;;6.05;100.00;96010.47;5051065;28;20194;-84
2022/11/28 09:12:03;;;;;;;6.73;3.60;;;;;;;6.08;100.00;96001.19;5053027;28;20209;-85
2022/11/28 09:14:30;;;;;;;7.63;3.57;;;;;;;6.10;100.00;96000.97;5048834;28;20202;-84
2022/11/28 09:16:57;;;;;;;7.37;3.50;;;;;;;6.06;100.00;95990.66;5051245;28;20206;-85
2022/11/28 09:19:25;;;;;;;4.20;2.50;;;;;;;6.12;100.00;95982.84;5066825;28;20222;-85
2022/11/28 09:21:53;;;;;;;4.27;2.13;;;;;;;6.26;100.00;95992.47;5048596;28;20207;-83
2022/11/28 09:24:20;;;;;;;6.67;2.83;;;;;;;6.39;100.00;95993.22;5073095;28;20281;-85
2022/11/28 09:26:47;;;;;;;7.47;3.20;;;;;;;6.43;100.00;95988.28;5047725;28;20202;-84
2022/11/28 09:29:14;;;;;;;7.63;2.93;;;;;;;6.60;100.00;95986.75;5051927;28;20201;-85
2022/11/28 09:31:41;;;;;;;6.17;3.63;;;;;;;6.67;100.00;95984.03;5052735;28;20221;-85
2022/11/28 09:34:08;;;;;;;5.77;3.10;;;;;;;6.77;100.00;95979.84;5068226;28;20208;-85
2022/11/28 09:36:35;;;;;;;6.57;3.07;;;;;;;6.78;100.00;95970.75;5054378;28;20231;-84
2022/11/28 09:39:04;;;;;;;5.97;3.40;;;;;;;6.86;100.00;95980.41;5065740;28;20220;-85
2022/11/28 09:41:55;;;;;;;5.63;3.13;;;;;;;6.87;100.00;95971.31;5048337;28;20245;-85
2022/11/28 09:44:26;;;;;;;8.20;3.30;;;;;;;6.82;100.00;95953.16;5043127;28;20198;-84
2022/11/28 09:46:57;;;;;;;4.53;2.67;;;;;;;6.97;100.00;95970.84;5046717;28;20205;-85
2022/11/28 09:49:33;;;;;;;5.90;2.70;;;;;;;7.05;100.00;95968.72;5070462;28;20194;-85
2022/11/28 09:52:06;;;;;;;5.47;3.07;;;;;;;7.06;100.00;95956.94;5044964;28;20223;-85
2022/11/28 09:54:43;;;;;;;4.93;2.83;;;;;;;7.15;100.00;95957.47;5055135;28;20193;-85
2022/11/28 09:57:17;;;;;;;8.30;2.73;;;;;;;7.29;100.00;95961.72;5055586;28;20234;-85
2022/11/28 09:59:45;;;;;;;4.37;2.47;;;;;;;7.36;100.00;95949.06;5060850;28;20225;-84
2022/11/28 10:02:28;;;;;;;5.07;3.20;;;;;;;7.39;100.00;95937.88;5038478;28;20212;-85
2022/11/28 10:05:07;;;;;;;7.10;2.67;;;;;;;7.41;100.00;95930.41;5046966;28;20217;-85
2022/11/28 10:07:49;;;;;;;5.63;3.00;;;;;;;7.50;100.00;95937.13;5070295;28;20200;-85
2022/11/28 10:10:30;;;;;;;3.20;2.50;;;;;;;7.66;100.00;95937.59;5048465;28;20217;-85
2022/11/28 10:13:03;;;;;;;5.17;3.03;;;;;;;7.70;100.00;95939.66;5051159;28;20201;-84
2022/11/28 10:15:46;;;;;;;4.80;2.77;;;;;;;7.76;100.00;95932.56;5053271;28;20198;-86
2022/11/28 10:18:28;;;;;;;4.47;2.67;;;;;;;7.79;100.00;95921.38;5056366;28;20216;-85
2022/11/28 10:21:01;;;;;;;3.30;2.50;;;;;;;7.91;98.27;95925.75;5051634;28;20212;-85
2022/11/28 10:23:34;;;;;;;5.37;2.93;;;;;;;8.00;98.68;95923.59;5064457;28;20206;-85
2022/11/28 10:26:08;;;;;;;4.13;2.80;;;;;;;8.10;98.44;95918.53;5070411;28;20266;-85
2022/11/28 10:28:38;;;;;;;6.17;3.23;;;;;;;8.23;97.56;95915.69;5047554;28;20210;-85
2022/11/28 10:31:12;;;;;;;5.63;3.30;;;;;;;8.33;96.73;95907.94;5049858;28;20208;-85
2022/11/28 10:33:46;;;;;;;6.60;2.80;;;;;;;8.44;95.21;95908.19;5053767;28;20296;-86
2022/11/28 10:36:21;;;;;;;4.90;2.70;;;;;;;8.45;94.98;95893.69;5049676;28;20210;-85
2022/11/28 10:38:48;;;;;;;6.90;2.67;;;;;;;8.51;93.91;95890.09;5036680;28;20218;-85
2022/11/28 10:41:21;;;;;;;6.50;2.90;;;;;;;8.62;93.72;95900.06;5047209;28;20206;-85
2022/11/28 10:43:58;;;;;;;5.53;3.07;;;;;;;8.73;92.35;95896.63;5044759;28;20229;-85
2022/11/28 10:46:55;;;;;;;9.60;3.10;;;;;;;8.84;93.22;95893.16;5035304;28;20301;-85
2022/11/28 10:49:35;;;;;;;10.93;7.03;;;;;;;-141.59;100.00;61776.25;5038114;28;20201;-85
2022/11/28 10:52:11;;;;;;;9.23;6.13;;;;;;;-141.59;100.00;61776.25;5068002;28;20198;-85
2022/11/28 10:54:55;;;;;;;11.07;3.63;;;;;;;-141.59;100.00;61776.25;5049839;28;20202;-86
2022/11/28 10:57:31;;;;;;;10.87;3.30;;;;;;;-141.59;100.00;61776.25;5054045;28;20197;-85
2022/11/28 11:00:05;;;;;;;20.77;3.80;;;;;;;-141.59;100.00;61776.25;5050090;28;20228;-85
2022/11/28 11:02:38;;;;;;;6.90;3.20;;;;;;;-141.59;100.00;61776.25;5043220;28;20281;-85
2022/11/28 11:05:14;;;;;;;11.37;3.67;;;;;;;-141.59;100.00;61776.25;5051383;28;20213;-84
2022/11/28 11:07:49;;;;;;;9.13;3.47;;;;;;;-141.59;100.00;61776.25;5047978;28;20202;-85
2022/11/28 11:10:34;;;;;;;8.00;3.40;;;;;;;-141.59;100.00;61776.25;5045049;28;20225;-85
2022/11/28 11:13:16;;;;;;;8.77;3.93;;;;;;;-141.59;100.00;61776.25;5054047;28;20209;-85
2022/11/28 11:15:45;;;;;;;5.30;3.10;;;;;;;-141.59;100.00;61776.25;5055987;28;20206;-85
2022/11/28 11:18:25;;;;;;;9.57;3.93;;;;;;;-141.59;100.00;61776.25;5050795;28;20212;-86
2022/11/28 11:20:52;;;;;;;8.73;4.93;;;;;;;-141.59;100.00;61776.25;5052159;28;20209;-85
2022/11/28 11:23:21;;;;;;;10.47;3.70;;;;;;;-141.59;100.00;61776.25;5047735;28;20209;-84
2022/11/28 11:25:53;;;;;;;7.57;4.17;;;;;;;-141.59;100.00;61776.25;5045792;28;20252;-85
2022/11/28 11:28:38;;;;;;;6.73;4.00;;;;;;;-141.59;100.00;61776.25;5039659;28;20259;-85
2022/11/28 11:31:16;;;;;;;7.53;4.00;;;;;;;-141.59;100.00;61776.25;5072593;28;20212;-85
2022/11/28 11:33:43;;;;;;;6.20;3.70;;;;;;;-141.59;100.00;61776.25;5048689;28;20505;-85
2022/11/28 11:36:23;;;;;;;11.77;3.60;;;;;;;-141.59;100.00;61776.25;5069234;28;20285;-85
2022/11/28 11:38:51;;;;;;;13.10;3.73;;;;;;;-141.59;100.00;61776.25;5050893;28;20229;-85
2022/11/28 11:41:28;;;;;;;7.73;3.30;;;;;;;-141.59;100.00;61776.25;5062226;28;20277;-85
2022/11/28 11:43:57;;;;;;;6.30;3.20;;;;;;;-141.59;100.00;61776.25;5055768;28;20532;-86
2022/11/28 11:46:24;;;;;;;9.93;3.97;;;;;;;-141.59;100.00;61776.25;5043731;28;20191;-85
2022/11/28 11:48:53;;;;;;;10.37;3.90;;;;;;;-141.59;100.00;61776.25;5052669;28;20254;-85